Time;durP1;ratioP1;P1;durP2;ratioP2;P2;SDS_P1;SDS_P2;PMS_P1;PMS_P2;Temp;Humidity;BMP_temperature;BMP_pressure;BME280_temperature;BME280_humidity;BME280_pressure;Samples;Min_cycle;Max_cycle;Signal;HPM_P1;HPM_P2
2023/09/08 00:00:30;;;;;;;8.50;6.70;;;;;;;14.57;86.26;97533.91;108870;1268;24407;-79
2023/09/08 00:03:21;;;;;;;8.20;6.20;;;;;;;14.57;86.16;97531.77;108929;1266;22592;-79
2023/09/08 00:05:52;;;;;;;10.40;6.40;;;;;;;14.50;86.13;97532.44;108875;1269;22768;-79
2023/09/08 00:08:24;;;;;;;8.30;6.80;;;;;;;14.42;86.34;97530.67;108879;1271;23922;-79
2023/09/08 00:10:55;;;;;;;10.30;6.90;;;;;;;14.32;86.41;97534.84;108853;1272;22507;-79
2023/09/08 00:13:25;;;;;;;9.30;7.10;;;;;;;14.22;86.64;97533.21;108888;1272;22556;-79
2023/09/08 00:15:56;;;;;;;9.40;6.70;;;;;;;14.21;87.18;97531.71;108886;1272;22546;-79
2023/09/08 00:18:27;;;;;;;10.50;7.70;;;;;;;14.28;87.31;97524.32;108846;1272;22504;-79
2023/09/08 00:20:58;;;;;;;8.80;6.60;;;;;;;14.33;87.38;97520.96;108884;1269;24374;-79
2023/09/08 00:23:29;;;;;;;10.40;7.00;;;;;;;14.36;87.14;97519.56;108847;1271;22507;-78
2023/09/08 00:26:01;;;;;;;10.90;6.60;;;;;;;14.37;87.18;97517.16;108850;1272;22518;-78
2023/09/08 00:28:31;;;;;;;10.10;6.60;;;;;;;14.39;87.32;97518.47;108863;1272;22537;-79
2023/09/08 00:31:07;;;;;;;9.50;7.00;;;;;;;14.40;86.86;97516.80;108947;1272;22598;-79
2023/09/08 00:33:40;;;;;;;9.80;6.80;;;;;;;14.38;86.69;97518.38;108844;1272;22531;-78
2023/09/08 00:36:11;;;;;;;10.70;7.40;;;;;;;14.41;86.98;97520.21;108904;1272;25322;-79
2023/09/08 00:38:47;;;;;;;11.50;7.20;;;;;;;14.38;86.89;97517.46;108811;1272;22519;-79
2023/09/08 00:41:18;;;;;;;9.70;7.60;;;;;;;14.24;87.05;97513.58;108867;1271;23935;-79
2023/09/08 00:43:48;;;;;;;8.90;7.10;;;;;;;14.20;87.58;97513.96;108838;1272;24890;-79
2023/09/08 00:46:20;;;;;;;9.50;7.30;;;;;;;14.25;87.61;97514.32;108940;1272;23816;-79
2023/09/08 00:48:51;;;;;;;9.80;7.30;;;;;;;14.30;87.80;97513.03;108914;1268;22576;-79
2023/09/08 00:51:23;;;;;;;12.30;7.90;;;;;;;14.34;87.89;97511.89;108899;1270;23845;-79
2023/09/08 00:53:55;;;;;;;9.40;7.20;;;;;;;14.37;87.99;97514.27;108865;1272;22537;-79
2023/09/08 00:56:26;;;;;;;9.30;6.90;;;;;;;14.39;87.83;97511.48;108940;1272;22526;-79
2023/09/08 00:58:57;;;;;;;8.90;7.40;;;;;;;14.41;87.59;97513.05;108902;1269;22537;-79
2023/09/08 01:01:28;;;;;;;9.30;6.70;;;;;;;14.41;87.49;97514.34;108850;1272;22523;-79
2023/09/08 01:03:59;;;;;;;10.20;7.60;;;;;;;14.29;87.13;97509.80;108868;1272;24085;-79
2023/09/08 01:06:32;;;;;;;8.30;6.60;;;;;;;14.19;87.70;97513.16;108865;1272;22538;-79
2023/09/08 01:09:06;;;;;;;10.50;6.70;;;;;;;14.16;87.59;97514.27;108877;1272;25068;-79
2023/09/08 01:11:37;;;;;;;9.60;7.20;;;;;;;14.03;87.59;97514.26;108939;1266;23999;-79
2023/09/08 01:14:08;;;;;;;9.80;7.60;;;;;;;13.99;88.07;97514.98;108904;1271;25414;-79
2023/09/08 01:16:41;;;;;;;12.50;8.20;;;;;;;13.99;88.67;97512.54;108902;1272;25393;-79
2023/09/08 01:19:14;;;;;;;10.30;8.00;;;;;;;14.06;88.79;97511.95;108985;1267;22528;-79
2023/09/08 01:22:26;;;;;;;10.60;7.90;;;;;;;14.07;88.77;97504.48;108916;1272;23252;-79
2023/09/08 01:25:14;;;;;;;10.60;8.10;;;;;;;14.11;88.92;97500.62;108933;1269;26517;-79
2023/09/08 01:27:50;;;;;;;8.60;7.30;;;;;;;14.05;88.88;97504.27;108950;1262;22516;-79
2023/09/08 01:30:25;;;;;;;10.40;7.90;;;;;;;13.99;89.11;97504.21;108945;1272;24221;-79
2023/09/08 01:32:56;;;;;;;11.60;7.60;;;;;;;14.03;89.60;97500.23;108895;1271;25512;-79
2023/09/08 01:35:28;;;;;;;10.30;7.90;;;;;;;14.10;89.72;97497.84;108867;1272;22543;-79
2023/09/08 01:37:59;;;;;;;10.20;7.30;;;;;;;14.14;89.58;97499.04;108941;1265;22508;-79
2023/09/08 01:40:30;;;;;;;11.20;7.40;;;;;;;14.11;89.01;97496.88;108908;1272;25133;-79
2023/09/08 01:43:01;;;;;;;9.00;7.00;;;;;;;14.00;88.57;97496.52;108806;1272;22530;-79
2023/09/08 01:45:32;;;;;;;10.30;7.40;;;;;;;13.88;88.80;97497.84;108885;1269;26647;-79
2023/09/08 01:48:07;;;;;;;9.30;7.10;;;;;;;13.86;89.17;97499.14;108899;1272;22504;-79
2023/09/08 01:50:38;;;;;;;10.80;7.20;;;;;;;13.75;88.74;97493.77;108910;1272;22537;-79
2023/09/08 01:53:09;;;;;;;11.10;8.20;;;;;;;13.62;89.00;97498.64;108873;1267;24968;-79
2023/09/08 01:55:41;;;;;;;11.00;8.20;;;;;;;13.63;89.71;97498.31;108855;1268;22510;-79
2023/09/08 01:58:14;;;;;;;12.30;7.90;;;;;;;13.71;89.89;97498.33;108904;1272;24282;-79
2023/09/08 02:00:49;;;;;;;10.80;7.70;;;;;;;13.77;90.03;97492.79;108911;1272;22980;-79
2023/09/08 02:03:20;;;;;;;9.50;7.50;;;;;;;13.84;90.20;97495.74;108933;1272;25276;-79
2023/09/08 02:05:51;;;;;;;12.40;7.60;;;;;;;13.90;90.29;97494.83;108883;1272;22546;-79
2023/09/08 02:08:22;;;;;;;10.70;7.60;;;;;;;13.87;89.63;97495.56;108893;1272;22520;-79
2023/09/08 02:10:53;;;;;;;9.90;7.40;;;;;;;13.81;89.66;97497.20;108918;1272;25201;-79
2023/09/08 02:13:24;;;;;;;9.60;7.30;;;;;;;13.77;89.81;97496.63;108895;1272;24209;-79
2023/09/08 02:15:55;;;;;;;9.40;7.30;;;;;;;13.74;90.06;97490.80;108887;1271;22515;-79
2023/09/08 02:18:26;;;;;;;9.80;7.50;;;;;;;13.79;90.18;97493.37;108914;1272;24026;-79
2023/09/08 02:20:57;;;;;;;9.80;7.40;;;;;;;13.83;90.25;97497.14;108867;1266;22668;-79
2023/09/08 02:23:28;;;;;;;8.70;7.70;;;;;;;13.75;90.04;97496.06;108885;1272;22514;-79
2023/09/08 02:25:59;;;;;;;10.40;7.70;;;;;;;13.72;90.27;97494.16;108880;1272;22513;-79
2023/09/08 02:28:30;;;;;;;9.70;7.40;;;;;;;13.78;90.41;97498.43;108904;1269;24395;-79
2023/09/08 02:31:01;;;;;;;11.00;7.80;;;;;;;13.82;90.28;97496.02;108921;1271;25276;-79
2023/09/08 02:33:38;;;;;;;9.40;6.80;;;;;;;13.85;90.06;97495.20;108908;1269;22617;-79
2023/09/08 02:36:12;;;;;;;10.20;7.80;;;;;;;13.86;90.15;97489.00;108913;1266;22525;-79
2023/09/08 02:38:43;;;;;;;9.80;7.90;;;;;;;13.88;90.12;97494.00;108896;1271;22579;-79
2023/09/08 02:41:13;;;;;;;9.00;6.60;;;;;;;13.91;90.16;97490.14;108870;1272;24350;-79
2023/09/08 02:43:45;;;;;;;7.90;6.70;;;;;;;13.90;89.83;97486.52;108835;1272;26311;-79
2023/09/08 02:46:18;;;;;;;10.40;7.30;;;;;;;13.90;89.69;97479.80;108904;1272;26300;-80
2023/09/08 02:48:52;;;;;;;10.10;8.10;;;;;;;13.90;89.88;97476.66;108890;1272;25281;-79
2023/09/08 02:51:23;;;;;;;9.40;7.90;;;;;;;13.90;90.27;97477.03;108915;1272;22639;-79
2023/09/08 02:53:54;;;;;;;9.10;7.70;;;;;;;13.84;90.05;97473.92;108830;1272;22558;-79
2023/09/08 02:56:25;;;;;;;10.50;8.00;;;;;;;13.77;90.29;97470.04;108909;1272;23040;-79
2023/09/08 02:58:56;;;;;;;10.80;7.50;;;;;;;13.81;90.71;97467.52;108894;1272;25233;-79
2023/09/08 03:01:27;;;;;;;11.50;7.70;;;;;;;13.85;90.69;97465.98;108920;1272;25434;-79
2023/09/08 03:03:58;;;;;;;11.30;7.40;;;;;;;13.85;90.19;97462.79;108841;1272;22504;-79
2023/09/08 03:06:29;;;;;;;10.30;7.10;;;;;;;13.66;89.70;97463.13;108874;1272;22508;-79
2023/09/08 03:09:02;;;;;;;10.20;7.10;;;;;;;13.49;90.12;97460.79;108927;1271;22517;-79
2023/09/08 03:11:38;;;;;;;9.80;6.90;;;;;;;13.37;90.55;97460.27;108888;1272;23450;-79
2023/09/08 03:14:11;;;;;;;10.80;8.30;;;;;;;13.29;91.00;97456.74;108903;1249;24236;-79
2023/09/08 03:16:42;;;;;;;11.10;7.30;;;;;;;13.26;91.46;97456.02;108940;1272;22526;-80
2023/09/08 03:19:13;;;;;;;10.20;7.80;;;;;;;13.31;91.96;97454.34;108937;1272;22585;-79
2023/09/08 03:21:44;;;;;;;8.50;7.30;;;;;;;13.38;92.22;97451.95;108841;1272;22518;-79
2023/09/08 03:24:15;;;;;;;9.00;7.00;;;;;;;13.45;92.15;97451.38;108879;1272;22703;-79
2023/09/08 03:26:46;;;;;;;10.10;8.00;;;;;;;13.52;92.05;97451.40;108870;1266;22596;-79
2023/09/08 03:29:18;;;;;;;10.50;7.30;;;;;;;13.51;91.40;97452.20;108887;1272;22579;-79
2023/09/08 03:31:50;;;;;;;9.90;6.80;;;;;;;13.32;90.79;97456.73;108860;1272;22506;-79
2023/09/08 03:34:21;;;;;;;11.30;8.00;;;;;;;13.21;91.19;97456.35;108744;1258;188172;-79
2023/09/08 03:36:55;;;;;;;8.80;7.30;;;;;;;13.22;91.99;97457.25;108896;1272;24205;-79
2023/09/08 03:39:26;;;;;;;10.30;8.10;;;;;;;13.32;92.60;97457.36;108941;1272;22537;-79
2023/09/08 03:41:57;;;;;;;11.80;8.90;;;;;;;13.40;92.90;97456.48;108834;1270;23821;-79
2023/09/08 03:44:28;;;;;;;9.30;7.40;;;;;;;13.47;92.92;97452.85;108818;1272;23868;-79
2023/09/08 03:46:59;;;;;;;9.90;8.10;;;;;;;13.40;92.42;97454.55;108911;1272;25265;-79
2023/09/08 03:49:30;;;;;;;9.90;8.30;;;;;;;13.34;92.49;97454.48;108915;1272;22797;-79
2023/09/08 03:52:01;;;;;;;13.70;8.70;;;;;;;13.33;93.07;97449.90;108920;1269;22589;-79
2023/09/08 03:54:35;;;;;;;10.40;8.50;;;;;;;13.37;93.28;97446.73;108914;1272;24507;-78
2023/09/08 03:57:08;;;;;;;10.30;8.50;;;;;;;13.41;93.45;97443.05;108879;1272;25312;-79
2023/09/08 03:59:41;;;;;;;12.00;8.90;;;;;;;13.46;93.65;97441.56;108926;1270;22527;-79
2023/09/08 04:02:14;;;;;;;11.70;9.30;;;;;;;13.51;93.70;97435.36;108865;1272;22516;-79
2023/09/08 04:04:47;;;;;;;10.30;8.40;;;;;;;13.57;93.78;97436.18;108946;1272;23226;-79
2023/09/08 04:07:18;;;;;;;9.00;7.40;;;;;;;13.59;93.71;97439.62;108902;1272;22516;-78
2023/09/08 04:09:51;;;;;;;12.00;8.70;;;;;;;13.60;93.74;97434.92;109251;1272;23330;-78
2023/09/08 04:12:23;;;;;;;9.60;7.90;;;;;;;13.62;93.71;97434.90;108925;1267;25419;-78
2023/09/08 04:14:54;;;;;;;10.90;7.90;;;;;;;13.61;93.70;97434.16;108932;1272;26599;-78
2023/09/08 04:17:25;;;;;;;10.70;8.60;;;;;;;13.61;93.80;97436.98;108969;1272;22506;-78
2023/09/08 04:19:57;;;;;;;10.80;8.90;;;;;;;13.69;93.99;97435.24;108971;1272;25476;-79
2023/09/08 04:22:28;;;;;;;10.80;8.70;;;;;;;13.77;93.93;97440.19;108973;1269;22561;-78
2023/09/08 04:25:00;;;;;;;8.90;7.20;;;;;;;13.90;93.97;97439.02;108932;1269;22933;-78
2023/09/08 04:27:33;;;;;;;10.40;7.80;;;;;;;14.01;93.83;97442.04;108888;1272;25400;-78
2023/09/08 04:30:09;;;;;;;8.60;7.40;;;;;;;14.20;94.02;97440.36;108846;1272;22631;-78
2023/09/08 04:32:43;;;;;;;11.10;7.60;;;;;;;14.51;94.24;97436.78;108945;1272;64189;-78
2023/09/08 04:35:15;;;;;;;9.80;7.70;;;;;;;14.76;93.81;97435.23;109008;1267;22682;-78
2023/09/08 04:37:50;;;;;;;8.30;7.10;;;;;;;15.05;93.76;97434.41;108954;1271;25345;-79
2023/09/08 04:40:21;;;;;;;10.40;7.70;;;;;;;15.29;92.83;97431.80;108957;1267;23868;-79
2023/09/08 04:42:55;;;;;;;9.50;7.10;;;;;;;15.38;92.11;97436.29;108882;1264;22553;-79
2023/09/08 04:45:26;;;;;;;9.60;7.20;;;;;;;15.53;91.91;97434.15;108943;1267;22530;-79
2023/09/08 04:47:57;;;;;;;9.70;7.00;;;;;;;15.74;91.84;97442.04;108879;1264;26290;-79
2023/09/08 04:50:28;;;;;;;11.70;7.00;;;;;;;16.10;92.19;97438.84;108892;1272;23999;-78
2023/09/08 04:52:59;;;;;;;10.30;6.40;;;;;;;16.46;91.75;97440.14;108888;1270;25408;-78
2023/09/08 04:55:31;;;;;;;8.50;6.40;;;;;;;16.75;91.03;97444.55;108915;1267;22734;-79
2023/09/08 04:58:12;;;;;;;9.80;6.90;;;;;;;17.08;90.44;97439.50;108914;1267;22514;-79
2023/09/08 05:00:47;;;;;;;9.30;6.00;;;;;;;17.37;89.57;97440.89;108978;1272;22979;-79
2023/09/08 05:03:18;;;;;;;8.90;7.10;;;;;;;17.72;89.50;97440.33;108898;1272;22512;-79
2023/09/08 05:05:49;;;;;;;8.60;6.30;;;;;;;18.04;88.45;97440.13;108950;1272;25297;-79
2023/09/08 05:08:22;;;;;;;8.80;6.50;;;;;;;18.25;87.35;97441.59;108894;1272;22750;-79
2023/09/08 05:10:55;;;;;;;10.70;6.70;;;;;;;18.48;87.00;97440.83;108891;1272;22507;-77
2023/09/08 05:13:26;;;;;;;11.30;6.50;;;;;;;18.84;86.74;97439.23;108875;1272;22524;-80
2023/09/08 05:16:10;;;;;;;9.50;6.40;;;;;;;19.23;86.13;97441.65;109212;1272;25436;-80
2023/09/08 05:18:44;;;;;;;8.10;6.70;;;;;;;19.57;84.80;97439.56;109153;1270;22530;-80
2023/09/08 05:21:15;;;;;;;9.70;6.30;;;;;;;19.80;83.98;97442.83;109187;1272;23920;-80
2023/09/08 05:23:46;;;;;;;10.80;6.40;;;;;;;20.05;83.58;97438.05;109274;1266;22615;-80
2023/09/08 05:26:24;;;;;;;6.80;5.70;;;;;;;20.31;82.59;97436.16;109265;1267;22541;-80
2023/09/08 05:28:55;;;;;;;9.90;6.10;;;;;;;20.45;81.10;97437.34;109259;1269;24238;-80
2023/09/08 05:31:29;;;;;;;8.00;5.80;;;;;;;20.66;80.79;97440.96;109219;1272;22519;-80
2023/09/08 05:34:00;;;;;;;11.40;6.20;;;;;;;20.98;80.17;97441.22;109233;1264;22529;-80
2023/09/08 05:36:32;;;;;;;7.70;5.80;;;;;;;21.13;78.82;97437.89;109229;1267;22524;-80
2023/09/08 05:39:06;;;;;;;9.10;5.70;;;;;;;21.31;78.52;97438.48;109297;1267;23188;-80
2023/09/08 05:41:37;;;;;;;8.70;5.60;;;;;;;21.54;77.68;97440.41;109292;1272;22542;-80
2023/09/08 05:44:11;;;;;;;8.50;6.30;;;;;;;21.66;76.74;97441.15;109255;1270;24240;-80
2023/09/08 05:46:42;;;;;;;8.40;6.30;;;;;;;21.55;75.89;97447.62;109241;1272;23801;-80
2023/09/08 05:49:14;;;;;;;9.30;6.60;;;;;;;21.50;75.85;97451.42;109228;1267;22508;-80
2023/09/08 05:51:45;;;;;;;7.30;5.50;;;;;;;21.83;75.91;97452.51;109274;1272;24443;-80
2023/09/08 05:54:16;;;;;;;8.80;6.00;;;;;;;22.11;75.20;97455.21;109187;1268;25373;-80
2023/09/08 05:56:47;;;;;;;8.50;6.20;;;;;;;22.27;74.47;97453.15;109181;1270;24041;-80
2023/09/08 05:59:18;;;;;;;7.80;5.90;;;;;;;22.21;73.24;97456.04;109180;1272;22576;-80
2023/09/08 06:01:51;;;;;;;9.10;5.80;;;;;;;21.74;72.13;97453.70;109238;1269;22537;-78
2023/09/08 06:04:22;;;;;;;7.80;6.10;;;;;;;21.24;71.88;97452.44;109210;1272;22560;-78
2023/09/08 06:06:53;;;;;;;8.40;6.10;;;;;;;21.08;72.22;97455.27;109236;1267;23315;-78
2023/09/08 06:09:24;;;;;;;8.40;6.00;;;;;;;21.23;73.02;97454.23;109259;1272;24269;-78
2023/09/08 06:11:55;;;;;;;7.40;5.50;;;;;;;21.49;73.18;97453.90;109237;1270;22593;-78
2023/09/08 06:14:26;;;;;;;7.60;6.10;;;;;;;21.75;72.95;97449.42;109188;1266;41393;-79
2023/09/08 06:16:57;;;;;;;8.20;5.80;;;;;;;21.66;71.43;97448.95;109210;1267;25240;-79
2023/09/08 06:19:28;;;;;;;7.50;5.60;;;;;;;21.54;72.02;97447.73;109246;1266;22530;-79
2023/09/08 06:21:59;;;;;;;8.90;6.20;;;;;;;21.76;72.71;97448.30;109255;1267;22557;-79
2023/09/08 06:24:31;;;;;;;9.10;5.30;;;;;;;22.08;72.42;97452.02;109236;1267;23263;-79
2023/09/08 06:27:06;;;;;;;7.10;6.00;;;;;;;22.29;71.85;97446.27;109229;1272;22546;-79
2023/09/08 06:29:43;;;;;;;6.70;5.70;;;;;;;22.48;71.61;97446.70;109226;1269;24211;-79
2023/09/08 06:32:14;;;;;;;8.20;5.90;;;;;;;22.79;71.60;97442.63;109240;1265;22511;-79
2023/09/08 06:34:45;;;;;;;7.30;5.60;;;;;;;23.01;70.70;97443.05;109205;1267;22659;-79
2023/09/08 06:37:18;;;;;;;7.40;6.10;;;;;;;23.04;70.29;97444.77;109262;1266;22514;-79
2023/09/08 06:39:52;;;;;;;7.40;6.00;;;;;;;23.22;70.48;97444.25;109244;1267;22514;-79
2023/09/08 06:42:23;;;;;;;7.70;5.70;;;;;;;23.37;69.91;97443.33;109220;1271;26506;-79
2023/09/08 06:44:54;;;;;;;9.40;6.10;;;;;;;23.47;69.58;97443.54;109251;1267;22699;-79
2023/09/08 06:47:25;;;;;;;9.30;6.50;;;;;;;23.51;68.79;97442.17;109186;1270;26267;-79
2023/09/08 06:49:57;;;;;;;7.90;5.90;;;;;;;23.61;68.56;97439.10;108915;1263;22511;-80
2023/09/08 06:52:27;;;;;;;7.30;6.20;;;;;;;23.64;68.38;97437.31;108903;1271;22508;-80
2023/09/08 06:54:59;;;;;;;7.70;5.70;;;;;;;23.66;67.43;97436.94;108880;1271;24209;-80
2023/09/08 06:57:30;;;;;;;7.80;5.60;;;;;;;23.62;67.20;97434.24;109219;1271;22552;-80
2023/09/08 07:00:06;;;;;;;7.50;5.70;;;;;;;23.70;67.08;97438.05;109252;1272;26424;-80
2023/09/08 07:02:37;;;;;;;5.70;5.00;;;;;;;23.79;66.89;97436.05;109168;1267;22640;-81
2023/09/08 07:05:11;;;;;;;7.20;5.40;;;;;;;23.84;66.39;97439.30;109232;1264;22570;-80
2023/09/08 07:07:44;;;;;;;8.30;6.10;;;;;;;23.86;65.73;97436.39;109198;1265;22548;-80
2023/09/08 07:10:16;;;;;;;9.70;5.60;;;;;;;23.92;65.33;97440.07;109212;1272;22559;-80
2023/09/08 07:12:48;;;;;;;8.20;5.70;;;;;;;23.95;65.23;97445.19;109259;1272;23322;-80
2023/09/08 07:15:19;;;;;;;7.80;6.20;;;;;;;24.05;65.44;97436.06;109384;1268;22560;-80
2023/09/08 07:17:50;;;;;;;9.90;5.30;;;;;;;24.12;65.29;97436.29;109259;1271;22508;-81
2023/09/08 07:20:21;;;;;;;7.00;4.90;;;;;;;24.06;64.70;97436.02;108895;1272;22528;-81
2023/09/08 07:22:52;;;;;;;7.80;5.90;;;;;;;24.07;64.81;97435.45;108770;1272;22500;-81
2023/09/08 07:25:23;;;;;;;7.20;5.30;;;;;;;24.17;65.09;97431.39;109395;1253;22516;-81
2023/09/08 07:27:54;;;;;;;6.70;6.00;;;;;;;24.31;65.01;97429.43;109219;1266;23874;-81
2023/09/08 07:30:28;;;;;;;8.80;5.80;;;;;;;24.45;64.58;97434.44;109308;1271;22521;-81
2023/09/08 07:32:59;;;;;;;8.70;5.40;;;;;;;24.52;64.68;97435.50;109211;1271;22596;-81
2023/09/08 07:35:30;;;;;;;8.40;5.80;;;;;;;24.47;64.24;97435.89;109261;1271;22522;-81
2023/09/08 07:38:01;;;;;;;7.80;6.30;;;;;;;24.41;63.93;97435.05;109246;1264;22560;-81
2023/09/08 07:40:32;;;;;;;8.00;6.40;;;;;;;24.49;64.34;97435.25;109222;1272;22549;-81
2023/09/08 07:43:08;;;;;;;8.60;5.80;;;;;;;24.69;64.48;97441.48;109251;1271;24031;-81
2023/09/08 07:45:40;;;;;;;7.70;5.70;;;;;;;24.87;64.38;97439.29;109204;1272;22560;-81
2023/09/08 07:48:21;;;;;;;7.70;5.80;;;;;;;24.98;64.33;97446.32;109227;1272;23859;-81
2023/09/08 07:50:52;;;;;;;10.30;6.50;;;;;;;25.07;63.83;97440.48;109225;1266;22524;-81
2023/09/08 07:53:23;;;;;;;8.80;6.60;;;;;;;25.15;63.74;97441.61;109215;1264;24998;-81
2023/09/08 07:55:54;;;;;;;9.90;6.30;;;;;;;25.19;63.51;97441.68;109223;1272;22507;-81
2023/09/08 07:58:25;;;;;;;9.80;5.90;;;;;;;25.23;63.41;97441.10;109253;1272;22550;-81
2023/09/08 08:00:59;;;;;;;8.00;5.90;;;;;;;25.16;62.96;97435.42;109221;1272;22867;-81
2023/09/08 08:03:30;;;;;;;9.40;5.90;;;;;;;25.09;62.71;97440.47;109142;1272;24490;-81
2023/09/08 08:06:01;;;;;;;10.60;6.10;;;;;;;25.08;62.59;97440.05;109242;1269;25451;-81
2023/09/08 08:08:38;;;;;;;10.40;6.20;;;;;;;25.01;62.78;97438.33;109264;1264;23837;-81
2023/09/08 08:11:13;;;;;;;10.90;6.10;;;;;;;24.95;62.31;97437.16;109297;1272;26576;-81
2023/09/08 08:13:46;;;;;;;8.20;6.10;;;;;;;24.89;62.17;97436.06;109215;1267;22540;-81
2023/09/08 08:16:17;;;;;;;7.80;6.10;;;;;;;24.79;61.90;97437.55;109225;1272;25242;-81
2023/09/08 08:18:50;;;;;;;7.10;5.90;;;;;;;24.65;61.91;97438.38;108877;1269;22519;-81
2023/09/08 08:21:22;;;;;;;8.90;6.00;;;;;;;24.73;62.83;97433.52;108897;1267;25394;-80
2023/09/08 08:23:54;;;;;;;10.00;6.20;;;;;;;24.92;63.32;97430.73;108750;1269;22569;-80
2023/09/08 08:26:28;;;;;;;8.60;6.50;;;;;;;24.95;62.47;97427.87;108733;1254;22514;-80
2023/09/08 08:28:59;;;;;;;8.90;5.90;;;;;;;24.96;62.85;97425.94;108828;1266;23877;-80
2023/09/08 08:31:30;;;;;;;8.10;6.10;;;;;;;25.03;62.84;97426.05;108864;1269;22508;-80
2023/09/08 08:34:02;;;;;;;11.30;6.40;;;;;;;25.11;62.72;97424.70;108862;1266;22526;-80
2023/09/08 08:36:34;;;;;;;10.30;6.20;;;;;;;25.13;62.11;97422.33;108907;1272;24067;-80
2023/09/08 08:39:07;;;;;;;7.00;5.60;;;;;;;25.09;61.91;97421.41;108933;1272;23433;-80
2023/09/08 08:41:43;;;;;;;7.80;5.70;;;;;;;25.14;62.49;97418.26;108900;1272;25421;-80
2023/09/08 08:44:16;;;;;;;8.50;6.00;;;;;;;25.22;62.04;97418.83;108884;1265;22524;-81
2023/09/08 08:46:48;;;;;;;11.10;6.50;;;;;;;25.27;62.08;97415.05;108961;1266;22517;-81
2023/09/08 08:49:22;;;;;;;8.50;5.90;;;;;;;25.19;62.04;97412.47;108925;1272;23960;-81
2023/09/08 08:51:54;;;;;;;10.70;6.30;;;;;;;25.02;61.80;97414.32;108914;1271;22778;-81
2023/09/08 08:54:25;;;;;;;9.90;6.60;;;;;;;25.02;62.51;97413.15;108910;1266;22498;-80
2023/09/08 08:56:57;;;;;;;7.90;6.40;;;;;;;25.16;63.02;97412.56;108911;1272;24209;-80
2023/09/08 08:59:31;;;;;;;10.30;6.30;;;;;;;25.19;62.59;97414.25;108932;1269;22533;-80
2023/09/08 09:02:08;;;;;;;9.80;6.60;;;;;;;25.19;62.17;97414.58;108855;1267;25440;-80
2023/09/08 09:04:39;;;;;;;10.90;6.60;;;;;;;25.16;62.37;97411.55;108899;1267;22505;-80
2023/09/08 09:07:12;;;;;;;8.90;6.40;;;;;;;25.15;62.35;97412.91;108672;1266;22817;-80
2023/09/08 09:09:43;;;;;;;7.80;6.60;;;;;;;25.19;63.03;97412.77;108783;1264;25425;-80
2023/09/08 09:12:14;;;;;;;9.30;6.30;;;;;;;25.29;63.41;97411.13;108853;1272;23979;-79
2023/09/08 09:14:53;;;;;;;8.70;6.40;;;;;;;25.31;63.29;97409.33;108922;1266;23282;-80
2023/09/08 09:17:24;;;;;;;9.20;5.90;;;;;;;25.27;62.78;97404.42;108854;1272;22554;-80
2023/09/08 09:20:15;;;;;;;9.10;6.70;;;;;;;25.11;62.35;97405.71;108881;1272;22543;-80
2023/09/08 09:22:47;;;;;;;8.50;6.40;;;;;;;25.06;62.25;97405.42;108939;1271;22522;-80
2023/09/08 09:25:26;;;;;;;9.10;6.40;;;;;;;25.08;62.91;97400.59;108929;1271;22500;-80
2023/09/08 09:27:58;;;;;;;8.90;6.70;;;;;;;25.13;63.14;97399.16;108901;1250;24613;-81
2023/09/08 09:30:47;;;;;;;10.00;7.00;;;;;;;25.07;62.23;97396.70;108918;1266;22537;-80
2023/09/08 09:33:18;;;;;;;15.30;8.40;;;;;;;24.91;62.53;97391.80;108980;1272;23998;-80
2023/09/08 09:35:52;;;;;;;9.60;6.80;;;;;;;24.85;63.02;97393.84;108919;1272;23254;-80
2023/09/08 09:38:28;;;;;;;9.20;6.80;;;;;;;24.93;63.26;97390.92;108917;1272;22503;-80
2023/09/08 09:40:59;;;;;;;8.70;7.10;;;;;;;24.95;63.32;97391.67;108901;1272;22560;-80
2023/09/08 09:43:31;;;;;;;9.50;6.60;;;;;;;24.96;63.22;97389.67;108892;1269;22521;-80
2023/09/08 09:46:08;;;;;;;8.00;6.60;;;;;;;24.84;62.49;97388.87;108913;1271;24176;-80
2023/09/08 09:48:43;;;;;;;9.70;6.90;;;;;;;24.65;62.12;97394.06;108907;1269;23308;-82
2023/09/08 09:51:21;;;;;;;10.10;7.10;;;;;;;24.55;62.59;97389.39;108881;1272;23194;-84
2023/09/08 09:53:54;;;;;;;10.40;6.70;;;;;;;24.60;62.80;97389.27;108896;1272;25360;-82
2023/09/08 09:56:26;;;;;;;8.70;6.80;;;;;;;24.54;62.72;97390.23;108912;1272;25306;-82
2023/09/08 09:58:57;;;;;;;8.50;6.70;;;;;;;24.58;63.59;97388.70;108927;1266;22716;-82
2023/09/08 10:01:29;;;;;;;7.70;5.90;;;;;;;24.67;63.52;97387.45;108907;1266;23783;-82
2023/09/08 10:04:03;;;;;;;7.10;5.70;;;;;;;24.77;63.91;97385.27;109028;1271;26560;-82
2023/09/08 10:06:36;;;;;;;7.50;5.90;;;;;;;24.77;63.07;97383.89;108992;1271;22553;-82
2023/09/08 10:09:13;;;;;;;8.40;6.30;;;;;;;24.76;63.04;97381.98;108896;1266;25261;-82
2023/09/08 10:11:48;;;;;;;9.10;6.40;;;;;;;24.69;62.76;97381.35;109090;1272;22628;-83
2023/09/08 10:14:22;;;;;;;7.90;6.40;;;;;;;24.51;62.42;97383.48;109078;1272;22533;-83
2023/09/08 10:16:58;;;;;;;9.20;6.80;;;;;;;24.44;62.87;97380.13;109008;1266;22564;-82
2023/09/08 10:19:29;;;;;;;9.20;6.50;;;;;;;24.42;63.33;97381.40;108943;1272;22784;-82
2023/09/08 10:22:06;;;;;;;7.90;6.00;;;;;;;24.48;63.74;97380.08;108925;1269;26424;-81
2023/09/08 10:24:41;;;;;;;9.00;6.40;;;;;;;24.55;63.68;97378.77;108923;1272;34676;-82
2023/09/08 10:27:14;;;;;;;8.40;6.90;;;;;;;24.54;62.96;97373.58;108896;1266;23862;-82
2023/09/08 10:29:48;;;;;;;8.60;6.10;;;;;;;24.56;64.08;97372.23;108881;1266;22515;-81
2023/09/08 10:32:21;;;;;;;7.90;6.60;;;;;;;24.67;64.03;97371.55;108878;1267;22566;-78
2023/09/08 10:34:53;;;;;;;9.90;6.40;;;;;;;24.63;62.78;97371.46;108794;1269;22655;-82
2023/09/08 10:37:29;;;;;;;8.80;6.40;;;;;;;24.52;62.54;97369.42;108825;1269;24209;-82
2023/09/08 10:40:23;;;;;;;8.20;6.30;;;;;;;24.55;63.03;97365.15;109219;1269;22623;-82
2023/09/08 10:43:11;;;;;;;7.50;6.00;;;;;;;24.58;63.26;97364.52;109144;1266;23106;-85
2023/09/08 10:45:42;;;;;;;7.10;5.90;;;;;;;24.62;63.34;97362.06;109251;1271;23827;-83
2023/09/08 10:48:16;;;;;;;9.00;5.90;;;;;;;24.69;64.02;97361.70;109401;1269;22490;-83
2023/09/08 10:50:47;;;;;;;9.10;6.60;;;;;;;24.70;63.72;97355.98;109239;1272;22556;-81
2023/09/08 10:53:19;;;;;;;7.30;5.90;;;;;;;24.73;64.14;97355.58;109294;1251;22534;-83
2023/09/08 10:55:53;;;;;;;7.50;6.00;;;;;;;24.77;63.73;97355.86;109271;1271;25414;-83
2023/09/08 10:58:35;;;;;;;9.90;5.80;;;;;;;24.74;62.95;97354.13;108850;1266;22527;-83
2023/09/08 11:01:13;;;;;;;8.40;6.20;;;;;;;24.63;62.61;97352.39;108910;1266;22523;-83
2023/09/08 11:03:49;;;;;;;9.70;6.50;;;;;;;24.63;63.29;97355.12;108944;1271;22508;-84
2023/09/08 11:06:23;;;;;;;10.30;6.50;;;;;;;24.67;63.27;97352.89;108991;1272;22515;-84
2023/09/08 11:08:55;;;;;;;8.50;5.90;;;;;;;24.66;63.19;97350.23;109038;1271;23744;-83
2023/09/08 11:11:26;;;;;;;9.10;5.90;;;;;;;24.69;63.63;97349.84;108939;1266;22512;-82
2023/09/08 11:13:58;;;;;;;7.20;5.50;;;;;;;24.76;63.84;97348.21;108889;1265;22650;-84
2023/09/08 11:16:31;;;;;;;6.70;5.50;;;;;;;24.80;63.33;97349.79;109406;1268;22515;-82
2023/09/08 11:19:09;;;;;;;8.30;5.60;;;;;;;24.83;63.34;97350.55;108886;1271;23845;-82
2023/09/08 11:21:42;;;;;;;6.70;5.50;;;;;;;24.86;62.79;97351.63;108919;1272;25397;-82
2023/09/08 11:24:14;;;;;;;6.90;5.10;;;;;;;24.88;62.89;97352.13;108788;1272;22643;-82
2023/09/08 11:26:50;;;;;;;6.70;5.80;;;;;;;24.90;62.70;97346.05;108950;1266;22530;-82
2023/09/08 11:29:21;;;;;;;6.00;5.30;;;;;;;24.89;62.33;97347.80;108891;1271;22511;-82
2023/09/08 11:31:56;;;;;;;5.90;5.30;;;;;;;24.90;62.86;97347.83;108851;1265;22527;-83
2023/09/08 11:34:27;;;;;;;7.30;5.30;;;;;;;24.94;62.01;97350.10;108868;1271;22517;-82
2023/09/08 11:36:59;;;;;;;6.90;5.10;;;;;;;24.92;61.78;97348.99;108929;1264;22527;-82
2023/09/08 11:39:30;;;;;;;6.50;5.20;;;;;;;24.92;61.45;97349.35;108866;1265;23278;-83
2023/09/08 11:42:05;;;;;;;9.40;6.30;;;;;;;24.87;60.94;97346.75;109237;1272;23865;-83
2023/09/08 11:44:36;;;;;;;7.40;5.50;;;;;;;24.84;60.94;97344.69;109349;1271;24211;-83
2023/09/08 11:47:09;;;;;;;5.90;5.20;;;;;;;24.88;61.50;97341.42;109264;1272;26606;-84